createdAt,value
2024-05-09T00:00:29.725Z,102034
2024-05-09T00:01:19.556Z,102034
2024-05-09T00:02:21.608Z,102034
2024-05-09T00:03:20.059Z,102032
2024-05-09T00:04:22.205Z,102033
2024-05-09T00:05:21.542Z,102034
2024-05-09T00:06:17.713Z,102028
2024-05-09T00:07:19.717Z,102031
2024-05-09T00:08:18.992Z,102029
2024-05-09T00:09:22.165Z,102025
2024-05-09T00:10:25.529Z,102026
2024-05-09T00:11:17.454Z,102025
2024-05-09T00:12:16.715Z,102025
2024-05-09T00:13:16.988Z,102025
2024-05-09T00:14:16.859Z,102026
2024-05-09T00:15:17.748Z,102024
2024-05-09T00:16:17.800Z,102020
2024-05-09T00:17:18.490Z,102019
2024-05-09T00:18:16.601Z,102017
2024-05-09T00:19:16.682Z,102017
2024-05-09T00:20:23.955Z,102017
2024-05-09T00:21:17.674Z,102015
2024-05-09T00:22:16.576Z,102014
2024-05-09T00:23:17.374Z,102012
2024-05-09T00:24:16.938Z,102012
2024-05-09T00:25:17.568Z,102013
2024-05-09T00:26:16.902Z,102011
2024-05-09T00:27:17.880Z,102014
2024-05-09T00:28:17.145Z,102012
2024-05-09T00:29:17.529Z,102014
2024-05-09T00:30:24.375Z,102013
2024-05-09T00:31:17.091Z,102013
2024-05-09T00:32:17.586Z,102009
2024-05-09T00:33:17.910Z,102012
2024-05-09T00:34:17.815Z,102012
2024-05-09T00:35:17.650Z,102010
2024-05-09T00:36:17.007Z,102009
2024-05-09T00:37:17.202Z,102012
2024-05-09T00:38:17.548Z,102010
2024-05-09T00:39:16.680Z,102010
2024-05-09T00:40:26.531Z,102011
2024-05-09T00:41:19.533Z,102007
2024-05-09T00:42:17.642Z,102006
2024-05-09T00:43:17.604Z,102010
2024-05-09T00:44:18.249Z,102005
2024-05-09T00:45:18.203Z,102003
2024-05-09T00:46:16.288Z,102009
2024-05-09T00:47:16.750Z,102015
2024-05-09T00:48:19.746Z,102006
2024-05-09T00:49:16.757Z,102010
2024-05-09T00:50:22.924Z,102008
2024-05-09T00:51:16.291Z,102013
2024-05-09T00:52:16.270Z,102016
2024-05-09T00:53:18.431Z,102009
2024-05-09T00:54:17.538Z,102010
2024-05-09T00:55:16.878Z,102007
2024-05-09T00:56:17.006Z,102010
2024-05-09T00:57:17.987Z,102007
2024-05-09T00:58:17.901Z,102007
2024-05-09T00:59:17.149Z,102007
2024-05-09T01:00:26.525Z,102008
2024-05-09T01:01:16.833Z,102005
2024-05-09T01:02:18.564Z,102006
2024-05-09T01:03:18.016Z,102002
2024-05-09T01:04:16.832Z,102007
2024-05-09T01:05:17.338Z,102003
2024-05-09T01:06:18.466Z,102003
2024-05-09T01:07:16.469Z,102006
2024-05-09T01:08:16.608Z,102010
2024-05-09T01:09:16.796Z,102004
2024-05-09T01:10:24.121Z,102004
2024-05-09T01:11:16.722Z,102006
2024-05-09T01:12:18.026Z,102006
2024-05-09T01:13:17.113Z,102005
2024-05-09T01:14:18.265Z,102006
2024-05-09T01:15:16.688Z,102006
2024-05-09T01:16:17.088Z,102006
2024-05-09T01:17:18.431Z,102007
2024-05-09T01:18:17.260Z,102006
2024-05-09T01:19:17.179Z,102010
2024-05-09T01:20:23.035Z,102009
2024-05-09T01:21:17.154Z,102012
2024-05-09T01:22:18.010Z,102010
2024-05-09T01:23:18.634Z,102009
2024-05-09T01:24:18.475Z,102008
2024-05-09T01:25:17.177Z,102008
2024-05-09T01:26:16.310Z,102009
2024-05-09T01:27:16.378Z,102012
2024-05-09T01:28:16.650Z,102007
2024-05-09T01:29:16.682Z,102005
2024-05-09T01:30:24.298Z,102005
2024-05-09T01:31:17.303Z,102003
2024-05-09T01:32:17.348Z,102006
2024-05-09T01:33:16.680Z,102005
2024-05-09T01:34:17.733Z,102004
2024-05-09T01:35:17.044Z,102004
2024-05-09T01:36:17.061Z,102001
2024-05-09T01:37:17.197Z,102000
2024-05-09T01:38:17.590Z,102000
2024-05-09T01:39:16.374Z,101999
2024-05-09T01:40:22.093Z,102001
2024-05-09T01:41:17.333Z,102002
2024-05-09T01:42:16.580Z,101999
2024-05-09T01:43:16.693Z,101998
2024-05-09T01:44:16.714Z,101999
2024-05-09T01:45:17.362Z,102001
2024-05-09T01:46:17.484Z,102000
2024-05-09T01:47:16.875Z,102002
2024-05-09T01:48:16.836Z,101996
2024-05-09T01:49:16.923Z,102000
2024-05-09T01:50:22.531Z,102000
2024-05-09T01:51:17.519Z,102000
2024-05-09T01:52:16.508Z,102002
2024-05-09T01:53:16.686Z,102000
2024-05-09T01:54:18.090Z,102001
2024-05-09T01:55:17.520Z,101998
2024-05-09T01:56:16.921Z,102001
2024-05-09T01:57:16.794Z,102003
2024-05-09T01:58:16.940Z,101998
2024-05-09T01:59:18.259Z,102001
2024-05-09T02:00:26.291Z,102007
2024-05-09T02:01:17.080Z,102007
2024-05-09T02:02:18.778Z,102008
2024-05-09T02:03:17.831Z,102005
2024-05-09T02:04:16.768Z,102006
2024-05-09T02:05:17.357Z,102009
2024-05-09T02:06:16.243Z,102008
2024-05-09T02:07:17.463Z,102009
2024-05-09T02:08:17.030Z,102006
2024-05-09T02:09:16.695Z,102005
2024-05-09T02:10:23.456Z,102003
2024-05-09T02:11:18.272Z,102005
2024-05-09T02:12:17.319Z,102003
2024-05-09T02:13:17.315Z,102007
2024-05-09T02:14:15.308Z,102007
2024-05-09T02:15:17.296Z,102008
2024-05-09T02:16:15.508Z,102010
2024-05-09T02:17:17.961Z,102013
2024-05-09T02:18:18.890Z,102010
2024-05-09T02:19:16.958Z,102012
2024-05-09T02:20:26.799Z,102011
2024-05-09T02:21:16.683Z,102011
2024-05-09T02:22:16.614Z,102007
2024-05-09T02:23:17.626Z,102008
2024-05-09T02:24:16.783Z,102007
2024-05-09T02:25:17.540Z,102012
2024-05-09T02:26:17.605Z,102011
2024-05-09T02:27:16.642Z,102011
2024-05-09T02:28:16.798Z,102016
2024-05-09T02:29:16.843Z,102013
2024-05-09T02:30:25.862Z,102015
2024-05-09T02:31:16.555Z,102013
2024-05-09T02:32:17.810Z,102011
2024-05-09T02:33:17.265Z,102011
2024-05-09T02:34:18.274Z,102011
2024-05-09T02:35:16.749Z,102010
2024-05-09T02:36:16.966Z,102013
2024-05-09T02:37:17.019Z,102006
2024-05-09T02:38:17.262Z,102014
2024-05-09T02:39:18.217Z,102008
2024-05-09T02:40:25.236Z,102012
2024-05-09T02:41:16.930Z,102011
2024-05-09T02:42:17.983Z,102012
2024-05-09T02:43:17.100Z,102010
2024-05-09T02:44:18.296Z,102013
2024-05-09T02:45:16.697Z,102012
2024-05-09T02:46:17.028Z,102010
2024-05-09T02:47:17.322Z,102015
2024-05-09T02:48:16.509Z,102015
2024-05-09T02:49:16.446Z,102016
2024-05-09T02:50:26.592Z,102013
2024-05-09T02:51:16.759Z,102013
2024-05-09T02:52:16.765Z,102011
2024-05-09T02:53:17.771Z,102012
2024-05-09T02:54:16.978Z,102008
2024-05-09T02:55:17.445Z,102007
2024-05-09T02:56:16.645Z,102007
2024-05-09T02:57:16.589Z,102004
2024-05-09T02:58:17.751Z,102003
2024-05-09T02:59:16.835Z,102006
2024-05-09T03:00:22.796Z,102003
2024-05-09T03:01:16.369Z,102002
2024-05-09T03:02:18.284Z,101999
2024-05-09T03:03:16.459Z,102002
2024-05-09T03:04:16.663Z,102000
2024-05-09T03:05:17.235Z,102001
2024-05-09T03:06:18.230Z,101999
2024-05-09T03:07:17.846Z,102001
2024-05-09T03:08:16.221Z,102002
2024-05-09T03:09:16.545Z,102002
2024-05-09T03:10:22.295Z,102002
2024-05-09T03:11:16.427Z,102005
2024-05-09T03:12:17.559Z,102009
2024-05-09T03:13:16.678Z,102007
2024-05-09T03:14:17.792Z,102010
2024-05-09T03:15:17.302Z,102012
2024-05-09T03:16:16.476Z,102016
2024-05-09T03:17:16.737Z,102011
2024-05-09T03:18:17.842Z,102015
2024-05-09T03:19:17.991Z,102013
2024-05-09T03:20:23.780Z,102016
2024-05-09T03:21:16.692Z,102011
2024-05-09T03:22:17.888Z,102013
2024-05-09T03:23:18.022Z,102014
2024-05-09T03:24:18.082Z,102016
2024-05-09T03:25:17.819Z,102014
2024-05-09T03:26:17.056Z,102012
2024-05-09T03:27:17.226Z,102015
2024-05-09T03:28:18.140Z,102017
2024-05-09T03:29:16.566Z,102017
2024-05-09T03:30:29.297Z,102011
2024-05-09T03:31:17.113Z,102012
2024-05-09T03:32:17.147Z,102009
2024-05-09T03:33:18.642Z,102014
2024-05-09T03:34:17.324Z,102011
2024-05-09T03:35:16.911Z,102011
2024-05-09T03:36:16.991Z,102010
2024-05-09T03:37:17.058Z,102011
2024-05-09T03:38:18.489Z,102013
2024-05-09T03:39:16.456Z,102013
2024-05-09T03:40:23.407Z,102016
2024-05-09T03:41:16.446Z,102012
2024-05-09T03:42:16.641Z,102012
2024-05-09T03:43:16.904Z,102014
2024-05-09T03:44:17.223Z,102014
2024-05-09T03:45:16.889Z,102014
2024-05-09T03:46:16.905Z,102013
2024-05-09T03:47:17.883Z,102014
2024-05-09T03:49:17.266Z,102014
2024-05-09T03:50:25.267Z,102010
2024-05-09T03:51:16.977Z,102012
2024-05-09T03:52:17.204Z,102011
2024-05-09T03:53:17.288Z,102007
2024-05-09T03:54:16.673Z,102007
2024-05-09T03:55:18.100Z,102004
2024-05-09T03:56:17.384Z,102005
2024-05-09T03:57:16.732Z,102008
2024-05-09T03:58:16.884Z,102010
2024-05-09T03:59:16.926Z,102009
2024-05-09T04:00:22.633Z,102005
2024-05-09T04:01:16.524Z,102009
2024-05-09T04:02:18.205Z,102009
2024-05-09T04:03:16.917Z,102008
2024-05-09T04:04:16.725Z,102009
2024-05-09T04:05:18.229Z,102009
2024-05-09T04:06:16.309Z,102009
2024-05-09T04:07:19.763Z,102009
2024-05-09T04:08:17.864Z,102011
2024-05-09T04:09:16.926Z,102012
2024-05-09T04:10:27.668Z,102015
2024-05-09T04:11:16.899Z,102012
2024-05-09T04:12:17.199Z,102016
2024-05-09T04:13:54.195Z,102017
2024-05-09T04:14:17.425Z,102016
2024-05-09T04:15:17.931Z,102020
2024-05-09T04:16:16.896Z,102018
2024-05-09T04:17:16.878Z,102019
2024-05-09T04:18:18.114Z,102023
2024-05-09T04:19:17.154Z,102014
2024-05-09T04:20:29.119Z,102020
2024-05-09T04:21:16.850Z,102019
2024-05-09T04:22:16.791Z,102016
2024-05-09T04:23:16.937Z,102021
2024-05-09T04:24:17.036Z,102021
2024-05-09T04:25:18.925Z,102019
2024-05-09T04:26:17.971Z,102023
2024-05-09T04:27:17.038Z,102023
2024-05-09T04:28:17.320Z,102025
2024-05-09T04:29:17.459Z,102026
2024-05-09T04:30:25.490Z,102027
2024-05-09T04:31:16.438Z,102034
2024-05-09T04:32:16.608Z,102033
2024-05-09T04:33:16.554Z,102036
2024-05-09T04:34:18.721Z,102036
2024-05-09T04:35:21.921Z,102035
2024-05-09T04:36:17.728Z,102035
2024-05-09T04:37:47.955Z,102037
2024-05-09T04:38:17.130Z,102037
2024-05-09T04:39:17.251Z,102037
2024-05-09T04:40:24.458Z,102043
2024-05-09T04:41:17.826Z,102042
2024-05-09T04:42:17.822Z,102039
2024-05-09T04:43:16.995Z,102042
2024-05-09T04:44:18.137Z,102045
2024-05-09T04:45:17.406Z,102044
2024-05-09T04:46:16.633Z,102044
2024-05-09T04:47:16.531Z,102047
2024-05-09T04:48:17.825Z,102051
2024-05-09T04:49:16.709Z,102046
2024-05-09T04:50:25.469Z,102046
2024-05-09T04:51:15.631Z,102050
2024-05-09T04:52:16.753Z,102048
2024-05-09T04:53:17.353Z,102049
2024-05-09T04:54:26.432Z,102051
2024-05-09T04:55:17.384Z,102054
2024-05-09T04:56:16.656Z,102053
2024-05-09T04:57:17.644Z,102059
2024-05-09T04:58:17.719Z,102058
2024-05-09T04:59:16.857Z,102059
2024-05-09T05:00:21.929Z,102058
2024-05-09T05:01:16.387Z,102055
2024-05-09T05:02:17.381Z,102054
2024-05-09T05:03:17.818Z,102061
2024-05-09T05:04:16.909Z,102058
2024-05-09T05:05:17.011Z,102057
2024-05-09T05:06:17.908Z,102054
2024-05-09T05:07:16.331Z,102058
2024-05-09T05:08:17.515Z,102058
2024-05-09T05:09:18.247Z,102060
2024-05-09T05:10:21.643Z,102060
2024-05-09T05:11:20.835Z,102057
2024-05-09T05:12:52.772Z,102060
2024-05-09T05:13:18.941Z,102060
2024-05-09T05:14:17.952Z,102059
2024-05-09T05:15:17.162Z,102060
2024-05-09T05:16:17.170Z,102066
2024-05-09T05:17:18.211Z,102065
2024-05-09T05:18:17.193Z,102064
2024-05-09T05:19:17.796Z,102065
2024-05-09T05:20:26.964Z,102065
2024-05-09T05:21:17.334Z,102065
2024-05-09T05:22:17.339Z,102067
2024-05-09T05:23:16.772Z,102068
2024-05-09T05:24:16.390Z,102065
2024-05-09T05:25:16.575Z,102067
2024-05-09T05:26:16.636Z,102067
2024-05-09T05:27:16.828Z,102067
2024-05-09T05:28:16.888Z,102070
2024-05-09T05:29:20.258Z,102071
2024-05-09T05:30:24.827Z,102067
2024-05-09T05:31:17.045Z,102069
2024-05-09T05:32:17.427Z,102073
2024-05-09T05:33:16.681Z,102065
2024-05-09T05:34:16.479Z,102072
2024-05-09T05:35:16.867Z,102068
2024-05-09T05:36:17.149Z,102068
2024-05-09T05:37:17.241Z,102071
2024-05-09T05:38:17.132Z,102069
2024-05-09T05:39:16.380Z,102073
2024-05-09T05:40:27.561Z,102071
2024-05-09T05:41:16.678Z,102074
2024-05-09T05:42:16.766Z,102071
2024-05-09T05:43:16.852Z,102075
2024-05-09T05:44:54.777Z,102075
2024-05-09T05:45:18.211Z,102078
2024-05-09T05:46:17.354Z,102084
2024-05-09T05:47:16.484Z,102081
2024-05-09T05:48:17.963Z,102080
2024-05-09T05:49:16.677Z,102086
2024-05-09T05:50:24.670Z,102086
2024-05-09T05:51:16.889Z,102089
2024-05-09T05:52:17.651Z,102085
2024-05-09T05:53:17.032Z,102092
2024-05-09T05:54:16.985Z,102089
2024-05-09T05:55:22.150Z,102089
2024-05-09T05:56:49.375Z,102084
2024-05-09T05:57:38.454Z,102086
2024-05-09T05:58:29.448Z,102089
2024-05-09T05:59:46.415Z,102091
2024-05-09T06:00:49.471Z,102087
2024-05-09T06:01:44.714Z,102089
2024-05-09T06:02:17.176Z,102092
2024-05-09T06:03:20.380Z,102094
2024-05-09T06:04:16.310Z,102092
2024-05-09T06:05:47.499Z,102091
2024-05-09T06:06:26.607Z,102086
2024-05-09T06:07:20.910Z,102088
2024-05-09T06:08:17.016Z,102087
2024-05-09T06:09:17.005Z,102089
2024-05-09T06:10:21.651Z,102087
2024-05-09T06:11:16.417Z,102088
2024-05-09T06:12:17.374Z,102089
2024-05-09T06:13:16.277Z,102089
2024-05-09T06:14:16.623Z,102091
2024-05-09T06:15:16.766Z,102094
2024-05-09T06:16:16.685Z,102098
2024-05-09T06:17:16.802Z,102097
2024-05-09T06:18:16.716Z,102095
2024-05-09T06:19:16.787Z,102098
2024-05-09T06:20:23.907Z,102098
2024-05-09T06:21:17.534Z,102096
2024-05-09T06:22:17.113Z,102103
2024-05-09T06:23:16.315Z,102106
2024-05-09T06:24:17.480Z,102103
2024-05-09T06:25:16.567Z,102104
2024-05-09T06:26:16.689Z,102102
2024-05-09T06:27:16.653Z,102104
2024-05-09T06:28:17.782Z,102101
2024-05-09T06:29:16.935Z,102106
2024-05-09T06:30:25.808Z,102108
2024-05-09T06:31:16.244Z,102107
2024-05-09T06:32:16.396Z,102111
2024-05-09T06:33:16.890Z,102108
2024-05-09T06:34:16.487Z,102112
2024-05-09T06:35:16.297Z,102109
2024-05-09T06:36:17.441Z,102110
2024-05-09T06:37:16.547Z,102110
2024-05-09T06:38:16.592Z,102103
2024-05-09T06:39:16.617Z,102103
2024-05-09T06:40:21.454Z,102100
2024-05-09T06:41:16.200Z,102108
2024-05-09T06:42:16.403Z,102100
2024-05-09T06:43:18.518Z,102109
2024-05-09T06:44:17.595Z,102115
2024-05-09T06:45:16.702Z,102120
2024-05-09T06:46:16.731Z,102117
2024-05-09T06:47:16.833Z,102120
2024-05-09T06:48:16.873Z,102118
2024-05-09T06:49:16.962Z,102118
2024-05-09T06:50:23.708Z,102124
2024-05-09T06:51:18.051Z,102121
2024-05-09T06:52:18.013Z,102119
2024-05-09T06:53:17.415Z,102118
2024-05-09T06:54:17.235Z,102118
2024-05-09T06:55:17.390Z,102126
2024-05-09T06:56:16.529Z,102123
2024-05-09T06:57:17.408Z,102126
2024-05-09T06:58:17.535Z,102126
2024-05-09T06:59:16.623Z,102128
2024-05-09T07:00:26.849Z,102128
2024-05-09T07:01:17.109Z,102127
2024-05-09T07:02:17.250Z,102134
2024-05-09T07:03:18.746Z,102137
2024-05-09T07:04:17.237Z,102137
2024-05-09T07:05:17.431Z,102135
2024-05-09T07:06:16.501Z,102133
2024-05-09T07:07:16.470Z,102136
2024-05-09T07:08:16.792Z,102141
2024-05-09T07:09:16.911Z,102138
2024-05-09T07:10:22.061Z,102136
2024-05-09T07:11:16.414Z,102139
2024-05-09T07:12:16.481Z,102140
2024-05-09T07:13:17.547Z,102138
2024-05-09T07:14:16.743Z,102142
2024-05-09T07:15:16.967Z,102139
2024-05-09T07:16:18.238Z,102142
2024-05-09T07:17:17.293Z,102141
2024-05-09T07:18:18.029Z,102141
2024-05-09T07:19:17.631Z,102136
2024-05-09T07:20:23.518Z,102141
2024-05-09T07:21:16.734Z,102139
2024-05-09T07:22:16.721Z,102136
2024-05-09T07:23:16.808Z,102143
2024-05-09T07:24:17.738Z,102142
2024-05-09T07:25:16.968Z,102138
2024-05-09T07:26:17.175Z,102139
2024-05-09T07:27:17.063Z,102137
2024-05-09T07:28:17.898Z,102139
2024-05-09T07:29:18.039Z,102137
2024-05-09T07:30:23.772Z,102140
2024-05-09T07:31:18.255Z,102134
2024-05-09T07:32:16.710Z,102139
2024-05-09T07:33:16.867Z,102141
2024-05-09T07:34:17.740Z,102145
2024-05-09T07:35:18.266Z,102147
2024-05-09T07:36:18.256Z,102140
2024-05-09T07:37:16.192Z,102142
2024-05-09T07:38:17.453Z,102144
2024-05-09T07:39:16.435Z,102147
2024-05-09T07:40:28.204Z,102147
2024-05-09T07:41:16.695Z,102149
2024-05-09T07:42:16.547Z,102145
2024-05-09T07:43:16.771Z,102150
2024-05-09T07:44:16.947Z,102142
2024-05-09T07:47:14.216Z,102141
2024-05-09T07:48:28.977Z,102137
2024-05-09T07:50:56.165Z,102137
2024-05-09T07:53:30.028Z,102141
2024-05-09T07:53:37.909Z,102144
2024-05-09T07:54:17.091Z,102144
2024-05-09T07:55:17.406Z,102144
2024-05-09T07:56:18.281Z,102147
2024-05-09T07:57:17.400Z,102146
2024-05-09T07:58:18.185Z,102150
2024-05-09T07:59:17.279Z,102149
2024-05-09T08:00:23.710Z,102150
2024-05-09T08:01:16.354Z,102150
2024-05-09T08:02:17.341Z,102155
2024-05-09T08:03:17.336Z,102152
2024-05-09T08:04:17.752Z,102151
2024-05-09T08:05:17.243Z,102153
2024-05-09T08:06:17.300Z,102154
2024-05-09T08:07:17.322Z,102153
2024-05-09T08:08:20.383Z,102155
2024-05-09T08:09:20.653Z,102148
2024-05-09T08:11:17.366Z,102158
2024-05-09T08:12:18.375Z,102156
2024-05-09T08:13:16.554Z,102149
2024-05-09T08:14:16.579Z,102146
2024-05-09T08:15:16.839Z,102148
2024-05-09T08:16:16.942Z,102149
2024-05-09T08:17:17.051Z,102153
2024-05-09T08:18:17.352Z,102155
2024-05-09T08:19:17.162Z,102158
2024-05-09T08:20:26.880Z,102159
2024-05-09T08:21:16.550Z,102156
2024-05-09T08:22:17.635Z,102155
2024-05-09T08:23:17.772Z,102153
2024-05-09T08:24:16.611Z,102150
2024-05-09T08:25:18.123Z,102150
2024-05-09T08:26:17.122Z,102151
2024-05-09T08:27:17.323Z,102156
2024-05-09T08:28:17.572Z,102156
2024-05-09T08:29:16.194Z,102153
2024-05-09T08:30:24.624Z,102150
2024-05-09T08:31:17.140Z,102151
2024-05-09T08:32:17.419Z,102152
2024-05-09T08:33:17.684Z,102155
2024-05-09T08:34:16.783Z,102160
2024-05-09T08:35:16.932Z,102152
2024-05-09T08:36:18.110Z,102158
2024-05-09T08:37:22.366Z,102159
2024-05-09T08:38:17.441Z,102158
2024-05-09T08:39:17.588Z,102163
2024-05-09T08:40:24.137Z,102157
2024-05-09T08:41:17.617Z,102154
2024-05-09T08:42:16.603Z,102156
2024-05-09T08:43:16.902Z,102159
2024-05-09T08:44:18.876Z,102163
2024-05-09T08:45:17.132Z,102158
2024-05-09T08:46:16.420Z,102160
2024-05-09T08:47:16.338Z,102158
2024-05-09T08:48:17.601Z,102160
2024-05-09T08:49:17.555Z,102160
2024-05-09T08:50:28.760Z,102161
2024-05-09T08:51:16.740Z,102164
2024-05-09T08:52:19.818Z,102165
2024-05-09T08:53:16.870Z,102162
2024-05-09T08:54:16.984Z,102163
2024-05-09T08:55:17.092Z,102162
2024-05-09T08:56:20.101Z,102163
2024-05-09T08:57:19.167Z,102165
2024-05-09T08:58:17.516Z,102160
2024-05-09T08:59:21.333Z,102162
2024-05-09T09:00:29.064Z,102163
2024-05-09T09:01:17.729Z,102160
2024-05-09T09:02:17.275Z,102157
2024-05-09T09:03:17.428Z,102166
2024-05-09T09:04:18.547Z,102162
2024-05-09T09:05:17.021Z,102160
2024-05-09T09:06:16.737Z,102164
2024-05-09T09:07:18.757Z,102164
2024-05-09T09:08:22.708Z,102157
2024-05-09T09:09:16.707Z,102158
2024-05-09T09:10:28.893Z,102159
2024-05-09T09:11:19.047Z,102156
2024-05-09T09:12:19.001Z,102157
2024-05-09T09:13:19.214Z,102157
2024-05-09T09:14:19.076Z,102154
2024-05-09T09:15:18.165Z,102157
2024-05-09T09:16:18.531Z,102154
2024-05-09T09:17:18.535Z,102153
2024-05-09T09:18:19.108Z,102150
2024-05-09T09:19:18.682Z,102152
2024-05-09T09:20:26.201Z,102149
2024-05-09T09:21:19.173Z,102150
2024-05-09T09:22:18.189Z,102150
2024-05-09T09:23:18.147Z,102152
2024-05-09T09:24:19.248Z,102149
2024-05-09T09:25:19.470Z,102151
2024-05-09T09:26:18.471Z,102151
2024-05-09T09:27:17.461Z,102148
2024-05-09T09:28:18.591Z,102146
2024-05-09T09:29:17.538Z,102147
2024-05-09T09:30:31.503Z,102153
2024-05-09T09:31:18.084Z,102147
2024-05-09T09:32:19.162Z,102144
2024-05-09T09:33:19.608Z,102145
2024-05-09T09:34:18.485Z,102144
2024-05-09T09:35:17.403Z,102147
2024-05-09T09:36:17.350Z,102152
2024-05-09T09:37:17.584Z,102157
2024-05-09T09:38:18.556Z,102156
2024-05-09T09:39:18.663Z,102153
2024-05-09T09:40:22.309Z,102156
2024-05-09T09:41:46.302Z,102151
2024-05-09T09:42:18.340Z,102150
2024-05-09T09:43:45.276Z,102155
2024-05-09T09:44:18.384Z,102158
2024-05-09T09:45:17.606Z,102152
2024-05-09T09:46:18.548Z,102151
2024-05-09T09:47:18.605Z,102149
2024-05-09T09:48:17.609Z,102153
2024-05-09T09:49:18.605Z,102149
2024-05-09T09:50:27.046Z,102144
2024-05-09T09:51:19.063Z,102155
2024-05-09T09:52:19.255Z,102148
2024-05-09T09:53:18.093Z,102137
2024-05-09T09:54:18.984Z,102146
2024-05-09T09:55:19.369Z,102150
2024-05-09T09:56:18.462Z,102150
2024-05-09T09:57:18.499Z,102150
2024-05-09T09:58:17.754Z,102149
2024-05-09T09:59:18.440Z,102150
2024-05-09T10:00:24.499Z,102147
2024-05-09T10:01:17.652Z,102145
2024-05-09T10:02:18.865Z,102146
2024-05-09T10:03:18.789Z,102144
2024-05-09T10:04:19.015Z,102144
2024-05-09T10:05:20.305Z,102147
2024-05-09T10:06:19.247Z,102144
2024-05-09T10:07:18.074Z,102148
2024-05-09T10:08:19.398Z,102144
2024-05-09T10:09:18.488Z,102147
2024-05-09T10:10:26.917Z,102144
2024-05-09T10:11:17.969Z,102137
2024-05-09T10:12:19.005Z,102138
2024-05-09T10:13:19.071Z,102142
2024-05-09T10:14:19.421Z,102134
2024-05-09T10:15:18.483Z,102137
2024-05-09T10:16:19.142Z,102131
2024-05-09T10:17:19.302Z,102133
2024-05-09T10:18:22.439Z,102133
2024-05-09T10:19:18.539Z,102133
2024-05-09T10:20:22.096Z,102137
2024-05-09T10:21:21.832Z,102139
2024-05-09T10:22:18.777Z,102133
2024-05-09T10:23:18.808Z,102133
2024-05-09T10:24:19.912Z,102130
2024-05-09T10:25:22.380Z,102135
2024-05-09T10:26:19.440Z,102131
2024-05-09T10:27:22.559Z,102125
2024-05-09T10:28:24.999Z,102134
2024-05-09T10:29:20.996Z,102129
2024-05-09T10:31:19.466Z,102126
2024-05-09T10:32:22.532Z,102129
2024-05-09T10:33:20.672Z,102126
2024-05-09T10:34:18.589Z,102125
2024-05-09T10:35:18.691Z,102126
2024-05-09T10:36:17.848Z,102122
2024-05-09T10:37:21.900Z,102118
2024-05-09T10:38:18.774Z,102114
2024-05-09T10:39:22.964Z,102117
2024-05-09T10:40:28.947Z,102114
2024-05-09T10:41:19.200Z,102108
2024-05-09T10:42:22.412Z,102108
2024-05-09T10:43:17.497Z,102108
2024-05-09T10:44:22.977Z,102111
2024-05-09T10:45:19.199Z,102110
2024-05-09T10:46:19.914Z,102111
2024-05-09T10:47:18.273Z,102106
2024-05-09T10:48:17.478Z,102107
2024-05-09T10:49:18.717Z,102110
2024-05-09T10:50:25.541Z,102107
2024-05-09T10:51:19.125Z,102101
2024-05-09T10:52:19.707Z,102104
2024-05-09T10:53:20.510Z,102103
2024-05-09T10:54:17.601Z,102104
2024-05-09T10:55:18.007Z,102107
2024-05-09T10:56:19.244Z,102106
2024-05-09T10:57:18.655Z,102106
2024-05-09T10:58:17.808Z,102107
2024-05-09T10:59:18.848Z,102105
2024-05-09T11:00:27.419Z,102106
2024-05-09T11:01:19.636Z,102106
2024-05-09T11:02:18.653Z,102104
2024-05-09T11:03:18.599Z,102105
2024-05-09T11:04:19.695Z,102106
2024-05-09T11:05:19.295Z,102104
2024-05-09T11:06:19.091Z,102102
2024-05-09T11:07:19.423Z,102103
2024-05-09T11:08:18.271Z,102102
2024-05-09T11:09:17.454Z,102100
2024-05-09T11:11:18.041Z,102095
2024-05-09T11:12:20.642Z,102102
2024-05-09T11:13:18.409Z,102101
2024-05-09T11:14:17.414Z,102096
2024-05-09T11:15:18.603Z,102094
2024-05-09T11:16:18.911Z,102096
2024-05-09T11:17:17.620Z,102095
2024-05-09T11:18:19.787Z,102096
2024-05-09T11:19:18.182Z,102093
2024-05-09T11:20:26.622Z,102096
2024-05-09T11:21:17.900Z,102096
2024-05-09T11:22:19.021Z,102090
2024-05-09T11:23:18.965Z,102091
2024-05-09T11:24:18.194Z,102091
2024-05-09T11:25:17.604Z,102087
2024-05-09T11:26:18.839Z,102087
2024-05-09T11:27:19.098Z,102084
2024-05-09T11:28:17.453Z,102083
2024-05-09T11:29:19.753Z,102085
2024-05-09T11:30:24.346Z,102080
2024-05-09T11:31:19.245Z,102082
2024-05-09T11:32:18.105Z,102083
2024-05-09T11:33:19.333Z,102091
2024-05-09T11:34:19.138Z,102089
2024-05-09T11:35:19.420Z,102086
2024-05-09T11:36:18.734Z,102088
2024-05-09T11:37:18.085Z,102082
2024-05-09T11:38:19.019Z,102086
2024-05-09T11:39:19.239Z,102076
2024-05-09T11:40:25.358Z,102077
2024-05-09T11:41:19.122Z,102080
2024-05-09T11:42:17.765Z,102076
2024-05-09T11:43:19.181Z,102078
2024-05-09T11:44:18.226Z,102077
2024-05-09T11:45:18.653Z,102077
2024-05-09T11:46:18.992Z,102079
2024-05-09T11:47:18.986Z,102083
2024-05-09T11:48:21.106Z,102082
2024-05-09T11:49:18.039Z,102075
2024-05-09T11:50:26.963Z,102077
2024-05-09T11:51:18.742Z,102081
2024-05-09T11:52:18.937Z,102077
2024-05-09T11:53:18.132Z,102079
2024-05-09T11:54:18.453Z,102077
2024-05-09T11:55:28.064Z,102075
2024-05-09T11:56:17.837Z,102070
2024-05-09T11:57:19.443Z,102073
2024-05-09T11:58:18.950Z,102069
2024-05-09T11:59:19.027Z,102071
2024-05-09T12:00:28.925Z,102073
2024-05-09T12:01:18.960Z,102071
2024-05-09T12:02:19.181Z,102067
2024-05-09T12:03:19.487Z,102066
2024-05-09T12:04:17.875Z,102068
2024-05-09T12:05:18.540Z,102066
2024-05-09T12:06:17.618Z,102067
2024-05-09T12:07:18.840Z,102066
2024-05-09T12:08:19.184Z,102067
2024-05-09T12:09:18.397Z,102064
2024-05-09T12:10:22.477Z,102062
2024-05-09T12:11:18.520Z,102059
2024-05-09T12:12:18.580Z,102060
2024-05-09T12:13:18.911Z,102055
2024-05-09T12:14:19.248Z,102056
2024-05-09T12:15:17.935Z,102056
2024-05-09T12:16:18.207Z,102058
2024-05-09T12:17:19.509Z,102055
2024-05-09T12:18:18.473Z,102055
2024-05-09T12:19:18.807Z,102054
2024-05-09T12:20:28.304Z,102050
2024-05-09T12:21:18.214Z,102050
2024-05-09T12:22:19.289Z,102048
2024-05-09T12:23:17.589Z,102047
2024-05-09T12:24:18.666Z,102052
2024-05-09T12:25:19.375Z,102052
2024-05-09T12:26:18.395Z,102054
2024-05-09T12:27:18.840Z,102053
2024-05-09T12:28:18.325Z,102053
2024-05-09T12:29:19.270Z,102053
2024-05-09T12:30:32.086Z,102054
2024-05-09T12:31:19.215Z,102054
2024-05-09T12:32:19.323Z,102057
2024-05-09T12:33:17.712Z,102057
2024-05-09T12:34:18.992Z,102056
2024-05-09T12:35:19.538Z,102053
2024-05-09T12:36:18.724Z,102054